Time;durP1;ratioP1;P1;durP2;ratioP2;P2;SDS_P1;SDS_P2;PMS_P1;PMS_P2;Temp;Humidity;BMP_temperature;BMP_pressure;BME280_temperature;BME280_humidity;BME280_pressure;Samples;Min_cycle;Max_cycle;Signal;HPM_P1;HPM_P2
2024/04/12 00:01:16;;;;;;;1999.90;999.90;;;16.40;99.90;;;;;;5311028;26;20042;-77
2024/04/12 00:03:43;;;;;;;1999.90;999.90;;;16.40;99.90;;;;;;5311382;27;20029;-77
2024/04/12 00:06:17;;;;;;;1999.90;999.90;;;16.30;99.90;;;;;;5311304;26;20030;-77
2024/04/12 00:08:49;;;;;;;1999.90;999.90;;;16.40;99.90;;;;;;5312916;26;20486;-77
2024/04/12 00:11:16;;;;;;;1999.90;999.90;;;16.40;99.90;;;;;;5308312;26;20482;-77
2024/04/12 00:13:52;;;;;;;1999.90;999.90;;;16.30;99.90;;;;;;5311551;27;20037;-77
2024/04/12 00:16:24;;;;;;;1999.90;999.90;;;16.20;99.90;;;;;;5308243;26;20034;-77
2024/04/12 00:19:06;;;;;;;1999.90;999.90;;;16.20;99.90;;;;;;5309294;27;20033;-77
2024/04/12 00:21:37;;;;;;;1999.90;999.90;;;16.10;99.90;;;;;;5311105;26;20514;-77
2024/04/12 00:24:11;;;;;;;1999.90;999.90;;;16.10;99.90;;;;;;5309770;27;20030;-77
2024/04/12 00:26:42;;;;;;;1999.90;999.90;;;16.10;99.90;;;;;;5310015;26;20041;-77
2024/04/12 00:32:03;;;;;;;1999.90;999.90;;;16.10;99.90;;;;;;5310131;26;20041;-77
2024/04/12 00:34:39;;;;;;;1999.90;999.90;;;16.00;99.90;;;;;;5309930;27;20404;-78
2024/04/12 00:37:15;;;;;;;1999.90;999.90;;;15.90;99.90;;;;;;5330767;26;20489;-77
2024/04/12 00:39:47;;;;;;;1999.90;999.90;;;15.90;99.90;;;;;;5345346;26;20028;-77
2024/04/12 00:42:14;;;;;;;1999.90;999.90;;;15.90;99.90;;;;;;5315578;26;20034;-77
2024/04/12 00:44:41;;;;;;;1999.90;999.90;;;15.80;99.90;;;;;;5311214;26;20535;-78
2024/04/12 00:47:15;;;;;;;1999.90;999.90;;;15.90;99.90;;;;;;5331650;26;20388;-77
2024/04/12 00:49:49;;;;;;;1999.90;999.90;;;15.90;99.90;;;;;;5288458;26;20454;-77
2024/04/12 00:52:28;;;;;;;1999.90;999.90;;;15.90;99.90;;;;;;5345245;26;20362;-77
2024/04/12 00:55:07;;;;;;;1999.90;999.90;;;15.80;99.90;;;;;;5344148;26;20026;-77
2024/04/12 00:57:35;;;;;;;1999.90;999.90;;;15.70;99.90;;;;;;5311652;26;20034;-77
2024/04/12 01:00:08;;;;;;;1999.90;999.90;;;15.70;99.90;;;;;;5312096;26;20025;-78
2024/04/12 01:02:40;;;;;;;1999.90;999.90;;;15.70;99.90;;;;;;5310617;26;20029;-77
2024/04/12 01:05:11;;;;;;;1999.90;999.90;;;15.70;99.90;;;;;;5309346;27;20026;-78
2024/04/12 01:07:48;;;;;;;1999.90;999.90;;;15.70;99.90;;;;;;5308701;27;20025;-77
2024/04/12 01:10:24;;;;;;;1999.90;999.90;;;15.70;99.90;;;;;;5310470;26;20102;-77
2024/04/12 01:12:56;;;;;;;1999.90;999.90;;;15.70;99.90;;;;;;5311230;26;20023;-77
2024/04/12 01:15:29;;;;;;;1999.90;999.90;;;15.60;99.90;;;;;;5307870;26;20050;-77
2024/04/12 01:17:56;;;;;;;1999.90;999.90;;;15.60;99.90;;;;;;5310711;27;20033;-77
2024/04/12 01:20:25;;;;;;;1999.90;999.90;;;15.60;99.90;;;;;;5311590;26;20495;-77
2024/04/12 01:22:57;;;;;;;1999.90;999.90;;;15.50;99.90;;;;;;5311918;27;20467;-77
2024/04/12 01:25:28;;;;;;;1999.90;999.90;;;15.50;99.90;;;;;;5314592;26;20029;-77
2024/04/12 01:27:55;;;;;;;1999.90;999.90;;;15.40;99.90;;;;;;5314919;26;20021;-77
2024/04/12 01:30:22;;;;;;;1999.90;999.90;;;15.30;99.90;;;;;;5312353;26;20022;-78
2024/04/12 01:32:50;;;;;;;1999.90;999.90;;;15.40;99.90;;;;;;5313760;26;20030;-77
2024/04/12 01:35:17;;;;;;;1999.90;999.90;;;15.40;99.90;;;;;;5311878;26;20025;-77
2024/04/12 01:37:43;;;;;;;1999.90;999.90;;;15.40;99.90;;;;;;5343609;26;20044;-78
2024/04/12 01:40:12;;;;;;;1999.90;999.90;;;15.40;99.90;;;;;;5348124;26;20037;-77
2024/04/12 01:42:42;;;;;;;1999.90;999.90;;;15.40;99.90;;;;;;5313431;26;20028;-78
2024/04/12 02:02:04;;;;;;;1999.90;999.90;;;15.10;99.90;;;;;;4731694;26;20009;-78
2024/04/12 02:04:34;;;;;;;1999.90;999.90;;;15.00;99.90;;;;;;5336523;26;20033;-77
2024/04/12 02:07:00;;;;;;;1999.90;999.90;;;15.00;99.90;;;;;;5330171;26;20001;-77
2024/04/12 02:09:28;;;;;;;1999.90;999.90;;;15.00;99.90;;;;;;5331867;26;20048;-77
2024/04/12 02:11:57;;;;;;;1999.90;999.90;;;15.10;99.90;;;;;;5345520;26;20033;-77
2024/04/12 02:14:23;;;;;;;1999.90;999.90;;;15.10;99.90;;;;;;5345615;26;20025;-78
2024/04/12 02:16:50;;;;;;;1999.90;999.90;;;15.10;99.90;;;;;;5321668;26;20349;-77
2024/04/12 02:19:21;;;;;;;1999.90;999.90;;;15.00;99.90;;;;;;5313017;26;20047;-76
2024/04/12 02:21:48;;;;;;;1999.90;999.90;;;15.00;99.90;;;;;;5311187;26;20116;-77
2024/04/12 02:24:17;;;;;;;1999.90;999.90;;;15.00;99.90;;;;;;5329688;26;20037;-77
2024/04/12 02:26:47;;;;;;;1999.90;999.90;;;14.90;99.90;;;;;;5323794;26;20046;-77
2024/04/12 02:29:13;;;;;;;1999.90;999.90;;;14.90;99.90;;;;;;5311218;27;20893;-78
2024/04/12 02:31:40;;;;;;;1999.90;999.90;;;14.90;99.90;;;;;;5310565;26;20029;-77
2024/04/12 02:34:09;;;;;;;1999.90;999.90;;;14.80;99.90;;;;;;5311260;26;20054;-77
2024/04/12 02:36:35;;;;;;;1999.90;999.90;;;14.80;99.90;;;;;;5328714;26;20033;-77
2024/04/12 02:39:06;;;;;;;1999.90;999.90;;;14.80;99.90;;;;;;5347292;26;20025;-77
2024/04/12 02:41:37;;;;;;;1999.90;999.90;;;14.70;99.90;;;;;;5346704;26;20029;-77
2024/04/12 02:44:05;;;;;;;1999.90;999.90;;;14.70;99.90;;;;;;5347525;26;20025;-77
2024/04/12 02:46:31;;;;;;;1999.90;999.90;;;14.70;99.90;;;;;;5340966;26;20037;-77
2024/04/12 02:48:59;;;;;;;1999.90;999.90;;;14.50;99.90;;;;;;5347349;26;20032;-77
2024/04/12 02:51:29;;;;;;;1999.90;999.90;;;14.50;99.90;;;;;;5346502;26;20381;-77
2024/04/12 02:53:57;;;;;;;1999.90;999.90;;;14.50;99.90;;;;;;5347508;26;20028;-77
2024/04/12 02:56:24;;;;;;;1999.90;999.90;;;14.50;99.90;;;;;;5329047;26;20029;-77
2024/04/12 02:58:52;;;;;;;1999.90;999.90;;;14.50;99.90;;;;;;5313661;26;20375;-77
2024/04/12 03:01:19;;;;;;;1999.90;999.90;;;14.50;99.90;;;;;;5312673;26;20053;-77
2024/04/12 03:03:47;;;;;;;1999.90;999.90;;;14.40;99.90;;;;;;5311063;27;20029;-77
2024/04/12 03:06:13;;;;;;;1999.90;999.90;;;14.40;99.90;;;;;;5312346;26;20498;-77
2024/04/12 03:08:44;;;;;;;1999.90;999.90;;;14.40;99.90;;;;;;5313037;26;20046;-77
2024/04/12 03:11:18;;;;;;;1999.90;999.90;;;14.40;99.90;;;;;;5311708;26;20046;-77
2024/04/12 03:13:44;;;;;;;1999.90;999.90;;;14.40;99.90;;;;;;5313042;26;20025;-77
2024/04/12 03:16:13;;;;;;;1999.90;999.90;;;14.40;99.90;;;;;;5311744;26;20367;-77
2024/04/12 03:18:46;;;;;;;1999.90;999.90;;;14.40;99.90;;;;;;5312381;27;20025;-77
2024/04/12 03:21:21;;;;;;;1999.90;999.90;;;14.40;99.90;;;;;;5282632;27;20683;-77
2024/04/12 03:23:48;;;;;;;1999.90;999.90;;;14.30;99.90;;;;;;5313505;26;20034;-77
2024/04/12 03:26:15;;;;;;;1999.90;999.90;;;14.30;99.90;;;;;;5311676;26;20042;-77
2024/04/12 03:28:45;;;;;;;1999.90;999.90;;;14.20;99.90;;;;;;5310833;27;20366;-77
2024/04/12 03:31:14;;;;;;;1999.90;999.90;;;14.20;99.90;;;;;;5311502;26;20037;-77
2024/04/12 03:33:43;;;;;;;1999.90;999.90;;;14.20;99.90;;;;;;5310650;27;20369;-77
2024/04/12 03:36:26;;;;;;;1999.90;999.90;;;14.10;99.90;;;;;;5319769;26;20033;-77
2024/04/12 03:41:46;;;;;;;1999.90;999.90;;;14.10;99.90;;;;;;5323252;26;20033;-77
2024/04/12 03:44:18;;;;;;;1999.90;999.90;;;14.10;99.90;;;;;;5313133;26;20371;-77
2024/04/12 03:46:49;;;;;;;1999.90;999.90;;;14.20;99.90;;;;;;5328030;26;20068;-77
2024/04/12 03:49:20;;;;;;;1999.90;999.90;;;14.10;99.90;;;;;;5346405;26;20037;-77
2024/04/12 03:51:48;;;;;;;1999.90;999.90;;;14.00;99.90;;;;;;5346641;26;20050;-77
2024/04/12 03:54:17;;;;;;;1999.90;999.90;;;14.00;99.90;;;;;;5343461;26;20037;-77
2024/04/12 03:56:51;;;;;;;1999.90;999.90;;;13.90;99.90;;;;;;5323755;26;20030;-77
2024/04/12 03:59:20;;;;;;;1999.90;999.90;;;14.00;99.90;;;;;;5312004;27;20029;-76
2024/04/12 04:01:47;;;;;;;1999.90;999.90;;;14.10;99.90;;;;;;5309595;26;20498;-78
2024/04/12 04:04:17;;;;;;;1999.90;999.90;;;14.10;99.90;;;;;;5310503;26;20478;-78
2024/04/12 04:06:55;;;;;;;1999.90;999.90;;;14.10;99.90;;;;;;5312631;26;20033;-78
2024/04/12 04:09:22;;;;;;;1999.90;999.90;;;14.00;99.90;;;;;;5311401;27;20029;-77
2024/04/12 04:11:48;;;;;;;1999.90;999.90;;;14.00;99.90;;;;;;5309502;26;20029;-77
2024/04/12 04:14:19;;;;;;;1999.90;999.90;;;13.90;99.90;;;;;;5311469;27;20021;-77
2024/04/12 04:16:56;;;;;;;1999.90;999.90;;;14.00;99.90;;;;;;5310722;26;20374;-78
2024/04/12 04:19:33;;;;;;;1999.90;999.90;;;13.90;99.90;;;;;;5312150;26;20374;-77
2024/04/12 04:22:03;;;;;;;1999.90;999.90;;;13.90;99.90;;;;;;5308980;26;20038;-77
2024/04/12 04:24:33;;;;;;;1999.90;999.90;;;13.90;99.90;;;;;;5312400;26;20030;-77
2024/04/12 04:27:00;;;;;;;1999.90;999.90;;;13.80;99.90;;;;;;5310891;26;20050;-77
2024/04/12 04:29:27;;;;;;;1999.90;999.90;;;13.80;99.90;;;;;;5312006;26;20043;-77
2024/04/12 04:31:54;;;;;;;1999.90;999.90;;;13.80;99.90;;;;;;5310588;26;20034;-77
2024/04/12 04:34:20;;;;;;;1999.90;999.90;;;13.80;99.90;;;;;;5309767;27;20029;-77
2024/04/12 04:36:50;;;;;;;1999.90;999.90;;;13.80;99.90;;;;;;5327683;26;20029;-77
2024/04/12 04:39:16;;;;;;;1999.90;999.90;;;13.80;99.90;;;;;;5345351;26;20369;-77
2024/04/12 04:41:46;;;;;;;1999.90;999.90;;;13.70;99.90;;;;;;5323005;26;20029;-77
2024/04/12 04:44:14;;;;;;;1999.90;999.90;;;13.70;99.90;;;;;;5312360;26;20030;-77
2024/04/12 04:46:49;;;;;;;1999.90;999.90;;;13.70;99.90;;;;;;5325603;26;20037;-77
2024/04/12 04:49:16;;;;;;;1999.90;999.90;;;13.60;99.90;;;;;;5345907;26;20037;-77
2024/04/12 04:51:43;;;;;;;1999.90;999.90;;;13.70;99.90;;;;;;5344928;26;20029;-77
2024/04/12 04:54:16;;;;;;;1999.90;999.90;;;13.70;99.90;;;;;;5343448;26;20490;-77
2024/04/12 04:56:43;;;;;;;1999.90;999.90;;;13.70;99.90;;;;;;5321187;26;20037;-77
2024/04/12 04:59:15;;;;;;;1999.90;999.90;;;13.60;99.90;;;;;;5308874;27;20034;-77
2024/04/12 05:01:48;;;;;;;1999.90;999.90;;;13.60;99.90;;;;;;5308190;26;20053;-77
2024/04/12 05:04:16;;;;;;;1999.90;999.90;;;13.60;99.90;;;;;;5311020;27;20037;-77
2024/04/12 05:06:43;;;;;;;1999.90;999.90;;;13.60;99.90;;;;;;5309981;26;20435;-77
2024/04/12 05:09:09;;;;;;;1999.90;999.90;;;13.60;99.90;;;;;;5311853;26;20046;-77
2024/04/12 05:11:38;;;;;;;1999.90;999.90;;;13.50;99.90;;;;;;5309020;26;20037;-77
2024/04/12 05:14:14;;;;;;;1999.90;999.90;;;13.40;99.90;;;;;;5311802;26;20022;-77
2024/04/12 05:16:42;;;;;;;1999.90;999.90;;;13.40;99.90;;;;;;5310460;26;20033;-77
2024/04/12 05:19:08;;;;;;;1999.90;999.90;;;13.40;99.90;;;;;;5310040;26;20029;-77
2024/04/12 05:21:38;;;;;;;1999.90;999.90;;;13.40;99.90;;;;;;5309807;26;20029;-77
2024/04/12 05:24:09;;;;;;;1999.90;999.90;;;13.50;99.90;;;;;;5310761;27;20027;-77
2024/04/12 05:26:37;;;;;;;1999.90;999.90;;;13.50;99.90;;;;;;5310384;26;20037;-77
2024/04/12 05:29:06;;;;;;;1999.90;999.90;;;13.50;99.90;;;;;;5310732;27;20478;-77
2024/04/12 05:31:32;;;;;;;1999.90;999.90;;;13.60;99.90;;;;;;5308495;26;20041;-77
2024/04/12 05:34:01;;;;;;;1999.90;999.90;;;13.60;99.90;;;;;;5310526;27;20774;-77
2024/04/12 05:36:32;;;;;;;1999.90;999.90;;;13.60;99.90;;;;;;5322085;26;20037;-76
2024/04/12 05:39:08;;;;;;;1999.90;999.90;;;13.70;99.90;;;;;;5344702;26;20021;-77
2024/04/12 05:41:36;;;;;;;1999.90;999.90;;;13.70;99.90;;;;;;5324167;26;20474;-77
2024/04/12 05:44:03;;;;;;;1999.90;999.90;;;13.80;99.90;;;;;;5280530;27;20163;-77
2024/04/12 05:46:29;;;;;;;1999.90;999.90;;;13.80;99.90;;;;;;5322887;26;20370;-77
2024/04/12 05:49:08;;;;;;;1999.90;999.90;;;13.80;99.90;;;;;;5345141;26;20376;-77
2024/04/12 05:51:38;;;;;;;1999.90;999.90;;;13.80;99.90;;;;;;5343971;26;20044;-77
2024/04/12 05:54:26;;;;;;;1999.90;999.90;;;13.70;99.90;;;;;;5342515;26;20021;-77
2024/04/12 05:56:52;;;;;;;1999.90;999.90;;;13.80;99.90;;;;;;5320243;26;20450;-76
2024/04/12 05:59:18;;;;;;;1999.90;999.90;;;13.70;99.90;;;;;;5310891;26;20029;-76
2024/04/12 06:01:46;;;;;;;1999.90;999.90;;;13.70;99.90;;;;;;5309269;26;20393;-77
2024/04/12 06:04:13;;;;;;;1999.90;999.90;;;13.80;99.90;;;;;;5310641;26;20645;-77
2024/04/12 06:06:42;;;;;;;1999.90;999.90;;;13.80;99.90;;;;;;5309127;26;20029;-76
2024/04/12 06:09:19;;;;;;;1999.90;999.90;;;13.70;99.90;;;;;;5310340;26;20494;-77
2024/04/12 06:11:52;;;;;;;1999.90;999.90;;;13.80;99.90;;;;;;5312931;26;20040;-77
2024/04/12 06:14:21;;;;;;;1999.90;999.90;;;13.80;99.90;;;;;;5312400;26;20029;-77
2024/04/12 06:16:57;;;;;;;1999.90;999.90;;;13.70;99.90;;;;;;5335951;26;20410;-77
2024/04/12 06:19:26;;;;;;;1999.90;999.90;;;13.70;99.90;;;;;;5348447;26;20370;-76
2024/04/12 06:21:52;;;;;;;1999.90;999.90;;;13.80;99.90;;;;;;5323486;26;20033;-77
2024/04/12 06:24:26;;;;;;;1999.90;999.90;;;13.80;99.90;;;;;;5313177;27;20026;-77
2024/04/12 06:26:54;;;;;;;1999.90;999.90;;;13.80;99.90;;;;;;5313602;26;20058;-76
2024/04/12 06:29:22;;;;;;;156.85;149.02;;;13.80;99.90;;;;;;5314218;26;20030;-76
2024/04/12 06:31:50;;;;;;;103.13;97.85;;;13.90;99.90;;;;;;5310422;26;20089;-77
2024/04/12 06:34:18;;;;;;;82.80;78.60;;;14.00;99.90;;;;;;5310361;27;20026;-77
2024/04/12 06:36:55;;;;;;;79.40;75.22;;;13.90;99.90;;;;;;5322427;26;20033;-77
2024/04/12 06:39:26;;;;;;;101.50;96.35;;;14.00;99.90;;;;;;5312945;26;20030;-76
2024/04/12 06:41:53;;;;;;;77.33;73.47;;;14.10;99.90;;;;;;5312467;26;20034;-77
2024/04/12 06:44:19;;;;;;;73.38;69.65;;;14.10;99.90;;;;;;5311287;26;20293;-77
2024/04/12 06:46:52;;;;;;;107.88;102.40;;;14.10;99.90;;;;;;5328011;26;20045;-76
2024/04/12 06:49:26;;;;;;;141.27;134.05;;;14.10;99.90;;;;;;5344987;26;20028;-76
2024/04/12 06:54:44;;;;;;;;;;;14.20;99.90;;;;;;5347957;26;20028;-76
2024/04/12 06:57:18;;;;;;;57.50;54.53;;;14.00;99.90;;;;;;5318568;26;20405;-77
2024/04/12 06:59:47;;;;;;;50.63;48.15;;;14.00;99.90;;;;;;5312815;26;20034;-77
2024/04/12 07:02:14;;;;;;;57.22;54.40;;;13.90;99.90;;;;;;5312100;26;20053;-77
2024/04/12 07:04:40;;;;;;;89.78;85.28;;;14.10;99.90;;;;;;5313296;26;20030;-76
2024/04/12 07:07:06;;;;;;;103.22;98.05;;;14.20;99.90;;;;;;5312135;26;20026;-77
2024/04/12 07:09:38;;;;;;;48.72;46.30;;;14.40;99.90;;;;;;5312544;26;20418;-77
2024/04/12 07:12:07;;;;;;;71.85;68.25;;;14.50;99.90;;;;;;5311999;26;20077;-77
2024/04/12 07:14:37;;;;;;;66.05;62.80;;;14.70;99.90;;;;;;5312714;27;20382;-77
2024/04/12 07:17:20;;;;;;;75.70;71.88;;;14.80;99.90;;;;;;5309936;26;20400;-77
2024/04/12 07:19:51;;;;;;;120.05;113.90;;;14.90;99.90;;;;;;5313613;26;20025;-77
2024/04/12 07:22:19;;;;;;;82.00;77.70;;;15.00;99.90;;;;;;5312843;26;20034;-77
2024/04/12 07:24:50;;;;;;;183.52;174.13;;;15.10;99.90;;;;;;5313700;26;20478;-77
2024/04/12 07:27:22;;;;;;;189.80;179.50;;;15.20;99.90;;;;;;5311021;26;20029;-78
2024/04/12 07:29:49;;;;;;;43.17;41.03;;;15.30;99.90;;;;;;5312119;26;20034;-78
2024/04/12 07:32:16;;;;;;;63.58;60.42;;;15.40;99.90;;;;;;5311958;26;20042;-78
2024/04/12 07:34:48;;;;;;;213.65;202.30;;;15.60;99.90;;;;;;5310526;27;20478;-78
2024/04/12 07:37:43;;;;;;;133.20;126.53;;;15.90;99.90;;;;;;5333797;26;20037;-77
2024/04/12 07:40:21;;;;;;;72.50;68.78;;;16.10;99.90;;;;;;5346349;26;20017;-77
2024/04/12 07:42:48;;;;;;;65.90;62.58;;;16.00;99.90;;;;;;5310151;27;20099;-78
2024/04/12 07:45:17;;;;;;;92.60;87.80;;;16.00;99.90;;;;;;5309290;26;20030;-78
2024/04/12 07:47:52;;;;;;;45.22;42.85;;;16.10;99.90;;;;;;5341862;26;20036;-78
2024/04/12 07:50:21;;;;;;;52.30;49.63;;;16.40;99.90;;;;;;5344404;26;20045;-78
2024/04/12 07:52:51;;;;;;;117.95;111.70;;;16.80;99.90;;;;;;5346450;26;20033;-78
2024/04/12 07:55:24;;;;;;;1999.90;999.90;;;17.00;99.90;;;;;;5346023;26;20473;-78
2024/04/12 07:57:54;;;;;;;1999.90;999.90;;;16.80;99.90;;;;;;5311999;26;20025;-78
2024/04/12 08:00:35;;;;;;;1999.90;999.90;;;16.70;99.90;;;;;;5311031;26;20034;-78
2024/04/12 08:03:06;;;;;;;1999.90;999.90;;;16.70;99.90;;;;;;5285208;27;20033;-78
2024/04/12 08:05:48;;;;;;;1999.90;999.90;;;16.70;99.90;;;;;;5312624;26;20085;-78
2024/04/12 08:08:15;;;;;;;1999.90;999.90;;;17.00;99.90;;;;;;5310248;27;20371;-78
2024/04/12 08:10:44;;;;;;;1999.90;999.90;;;17.40;99.90;;;;;;5312006;26;20039;-77
2024/04/12 08:13:10;;;;;;;1999.90;999.90;;;17.40;99.90;;;;;;5312255;26;20034;-78
2024/04/12 08:15:41;;;;;;;1999.90;999.90;;;17.40;99.90;;;;;;5311450;26;20041;-78
2024/04/12 08:18:07;;;;;;;1999.90;999.90;;;17.60;99.90;;;;;;5312750;26;20030;-78
2024/04/12 08:20:39;;;;;;;1999.90;999.90;;;17.60;99.90;;;;;;5311345;26;20042;-78
2024/04/12 08:23:05;;;;;;;1999.90;999.90;;;17.80;99.90;;;;;;5311649;26;20480;-78
2024/04/12 08:25:36;;;;;;;1999.90;999.90;;;18.20;99.90;;;;;;5311085;26;20033;-77
2024/04/12 08:28:06;;;;;;;1999.90;999.90;;;18.20;99.90;;;;;;5311666;26;20022;-78
2024/04/12 08:30:51;;;;;;;1999.90;999.90;;;18.30;99.90;;;;;;5310433;26;20518;-78
2024/04/12 08:33:24;;;;;;;1999.90;999.90;;;18.40;99.90;;;;;;5311220;26;20033;-76
2024/04/12 08:35:55;;;;;;;1999.90;999.90;;;18.50;99.90;;;;;;5312590;26;20041;-78
2024/04/12 08:38:25;;;;;;;1999.90;999.90;;;18.80;99.90;;;;;;5343131;26;20037;-79
2024/04/12 08:40:52;;;;;;;1999.90;999.90;;;19.00;99.90;;;;;;5336089;26;20486;-78
2024/04/12 08:43:41;;;;;;;1999.90;999.90;;;19.00;99.90;;;;;;5309642;27;20041;-77
2024/04/12 08:46:16;;;;;;;1999.90;999.90;;;19.00;99.90;;;;;;5316978;26;20445;-78
2024/04/12 08:48:46;;;;;;;1999.90;999.90;;;19.00;99.90;;;;;;5344159;26;20029;-77
2024/04/12 08:51:21;;;;;;;1999.90;999.90;;;19.00;99.90;;;;;;5343575;26;20011;-78
2024/04/12 08:53:55;;;;;;;1999.90;999.90;;;19.30;99.90;;;;;;5343526;26;20021;-78
2024/04/12 08:56:23;;;;;;;1999.90;999.90;;;19.60;99.90;;;;;;5315447;26;20029;-78
2024/04/12 08:58:52;;;;;;;1999.90;999.90;;;19.80;99.90;;;;;;5343571;26;20362;-78
2024/04/12 09:01:21;;;;;;;1999.90;999.90;;;20.00;99.90;;;;;;5342510;26;20493;-78
2024/04/12 09:03:51;;;;;;;1999.90;999.90;;;20.30;99.90;;;;;;5346112;26;20489;-78
2024/04/12 09:06:23;;;;;;;1999.90;999.90;;;20.20;99.90;;;;;;5329577;26;20053;-79
2024/04/12 09:08:51;;;;;;;1999.90;999.90;;;20.20;99.90;;;;;;5312127;26;20025;-79
2024/04/12 09:11:19;;;;;;;1999.90;999.90;;;20.40;99.90;;;;;;5308397;26;20037;-77
2024/04/12 09:13:49;;;;;;;1999.90;999.90;;;20.10;99.90;;;;;;5308417;27;20365;-78
2024/04/12 09:16:19;;;;;;;1999.90;999.90;;;20.30;99.90;;;;;;5311111;26;20034;-78
2024/04/12 09:18:51;;;;;;;1999.90;999.90;;;20.30;99.90;;;;;;5311626;26;20021;-78
2024/04/12 09:21:36;;;;;;;1999.90;999.90;;;20.60;99.90;;;;;;5311472;26;20033;-78
2024/04/12 09:24:09;;;;;;;1999.90;999.90;;;20.70;99.90;;;;;;5311620;26;20034;-79
2024/04/12 09:26:55;;;;;;;1999.90;999.90;;;20.70;99.90;;;;;;5310416;26;20487;-78
2024/04/12 09:29:27;;;;;;;1999.90;999.90;;;20.80;99.90;;;;;;5310211;27;20359;-78
2024/04/12 09:34:42;;;;;;;1999.90;999.90;;;20.80;99.90;;;;;;5310353;27;20478;-78
2024/04/12 09:37:28;;;;;;;1999.90;999.90;;;20.80;99.90;;;;;;5310509;26;20037;-78
2024/04/12 09:42:45;;;;;;;1999.90;999.90;;;20.90;99.90;;;;;;5308042;26;20034;-78
2024/04/12 09:45:19;;;;;;;1999.90;999.90;;;21.00;99.90;;;;;;5313531;26;20034;-78
2024/04/12 10:38:34;;;;;;;1999.90;999.90;;;23.40;99.90;;;;;;5287802;27;20483;-78
2024/04/12 10:41:03;;;;;;;1999.90;999.90;;;23.50;99.90;;;;;;5313052;26;20025;-79
2024/04/12 10:43:35;;;;;;;1999.90;999.90;;;23.30;99.90;;;;;;5312879;27;20390;-79
2024/04/12 10:46:04;;;;;;;1999.90;999.90;;;23.20;99.90;;;;;;5317712;26;20374;-78
2024/04/12 10:48:33;;;;;;;1999.90;999.90;;;23.10;99.90;;;;;;5347453;26;20025;-78
2024/04/12 10:51:00;;;;;;;1999.90;999.90;;;23.10;99.90;;;;;;5347226;26;20052;-78
2024/04/12 10:53:29;;;;;;;1999.90;999.90;;;23.20;99.90;;;;;;5345495;26;20372;-78
2024/04/12 10:55:55;;;;;;;1999.90;999.90;;;22.80;99.90;;;;;;5335140;26;20370;-78
2024/04/12 10:58:33;;;;;;;1999.90;999.90;;;22.70;99.90;;;;;;5313745;26;20089;-79
2024/04/12 11:01:04;;;;;;;1999.90;999.90;;;22.80;99.90;;;;;;5311519;26;20042;-78
2024/04/12 11:03:38;;;;;;;1999.90;999.90;;;23.10;99.90;;;;;;5313520;26;20034;-78
2024/04/12 11:06:17;;;;;;;1999.90;999.90;;;23.00;99.90;;;;;;5312238;26;20026;-78
2024/04/12 11:08:46;;;;;;;1999.90;999.90;;;23.00;99.90;;;;;;5312540;26;20026;-78
2024/04/12 11:11:26;;;;;;;1999.90;999.90;;;22.80;99.90;;;;;;5312959;26;20050;-78
2024/04/12 11:13:54;;;;;;;1999.90;999.90;;;22.90;99.90;;;;;;5311157;27;20029;-78
2024/04/12 11:32:56;;;;;;;1999.90;999.90;;;23.40;99.90;;;;;;5312318;27;20025;-78
2024/04/12 11:35:28;;;;;;;1999.90;999.90;;;23.70;99.90;;;;;;5314496;26;20029;-78
2024/04/12 11:37:55;;;;;;;1999.90;999.90;;;23.80;99.90;;;;;;5345058;26;20052;-79
2024/04/12 11:40:21;;;;;;;1999.90;999.90;;;24.00;99.90;;;;;;5340174;26;20036;-78
2024/04/12 11:42:49;;;;;;;1999.90;999.90;;;24.20;99.90;;;;;;5310639;27;20361;-78
2024/04/12 11:45:17;;;;;;;1999.90;999.90;;;24.30;99.90;;;;;;5311482;26;20034;-79
2024/04/12 11:47:44;;;;;;;1999.90;999.90;;;24.40;99.90;;;;;;5312702;26;20033;-78
2024/04/12 11:50:10;;;;;;;1999.90;999.90;;;24.50;99.90;;;;;;5346530;26;20041;-78
2024/04/12 11:52:38;;;;;;;1999.90;999.90;;;24.40;99.90;;;;;;5311753;26;20034;-78
2024/04/12 11:55:06;;;;;;;1999.90;999.90;;;24.00;99.90;;;;;;5312439;26;20033;-78
2024/04/12 11:57:36;;;;;;;1999.90;999.90;;;23.90;99.90;;;;;;5311591;26;20029;-78
2024/04/12 12:00:08;;;;;;;1999.90;999.90;;;24.00;99.90;;;;;;5312271;26;20377;-76
2024/04/12 12:02:43;;;;;;;1999.90;999.90;;;24.20;99.90;;;;;;5346513;26;20373;-78
2024/04/12 12:05:16;;;;;;;1999.90;999.90;;;23.80;99.90;;;;;;5346623;26;20033;-78
2024/04/12 12:07:45;;;;;;;1999.90;999.90;;;23.60;99.90;;;;;;5311345;27;20037;-78
2024/04/12 12:10:12;;;;;;;1999.90;999.90;;;23.70;99.90;;;;;;5338533;26;20025;-79
2024/04/12 12:12:39;;;;;;;1999.90;999.90;;;23.90;99.90;;;;;;5311941;27;20030;-77
2024/04/12 12:15:09;;;;;;;1999.90;999.90;;;24.10;99.90;;;;;;5311189;26;20029;-78
2024/04/12 12:17:35;;;;;;;1999.90;999.90;;;24.30;99.90;;;;;;5345914;26;20049;-78
2024/04/12 12:20:01;;;;;;;1999.90;999.90;;;24.60;99.90;;;;;;5344274;26;20029;-78
2024/04/12 12:22:30;;;;;;;1999.90;999.90;;;24.90;99.90;;;;;;5312832;26;20022;-78
2024/04/12 12:24:58;;;;;;;1999.90;999.90;;;24.20;99.90;;;;;;5309150;27;20026;-78
2024/04/12 12:27:24;;;;;;;1999.90;999.90;;;24.20;99.90;;;;;;5311220;26;20037;-78
2024/04/12 12:29:53;;;;;;;1999.90;999.90;;;24.10;99.90;;;;;;5309881;27;20037;-77
2024/04/12 12:32:26;;;;;;;1999.90;999.90;;;23.80;99.90;;;;;;5311561;26;20037;-78
2024/04/12 12:34:53;;;;;;;1999.90;999.90;;;23.50;99.90;;;;;;5309759;27;20076;-78
2024/04/12 12:37:19;;;;;;;1999.90;999.90;;;23.70;99.90;;;;;;5333162;26;20025;-77
2024/04/12 12:39:47;;;;;;;1999.90;999.90;;;24.10;99.90;;;;;;5345928;26;20025;-78
2024/04/12 12:42:15;;;;;;;1999.90;999.90;;;24.30;99.90;;;;;;5316346;26;20026;-78
2024/04/12 12:44:43;;;;;;;1999.90;999.90;;;24.20;99.90;;;;;;5312440;26;20026;-77
2024/04/12 12:47:10;;;;;;;1999.90;999.90;;;24.30;99.90;;;;;;5333340;26;20052;-78
2024/04/12 12:49:50;;;;;;;1999.90;999.90;;;24.20;99.90;;;;;;5346393;26;20033;-78
2024/04/12 12:52:17;;;;;;;1999.90;999.90;;;24.10;99.90;;;;;;5345249;26;20033;-78
2024/04/12 12:54:43;;;;;;;1999.90;999.90;;;24.30;99.90;;;;;;5343793;26;20281;-79
2024/04/12 12:57:14;;;;;;;1999.90;999.90;;;24.30;99.90;;;;;;5316960;26;20030;-78
2024/04/12 12:59:44;;;;;;;1999.90;999.90;;;24.20;99.90;;;;;;5309983;26;20034;-78
2024/04/12 13:02:16;;;;;;;1999.90;999.90;;;24.50;99.90;;;;;;5310201;26;20045;-78
2024/04/12 13:04:48;;;;;;;1999.90;999.90;;;24.90;99.90;;;;;;5311070;27;20025;-77
2024/04/12 13:07:18;;;;;;;1999.90;999.90;;;25.30;99.90;;;;;;5308623;26;20038;-78
2024/04/12 13:09:44;;;;;;;1999.90;999.90;;;25.50;99.90;;;;;;5281697;27;20030;-78
2024/04/12 13:12:10;;;;;;;1999.90;999.90;;;25.50;99.90;;;;;;5309698;26;20026;-78
2024/04/12 13:14:40;;;;;;;1999.90;999.90;;;25.50;99.90;;;;;;5311029;27;20037;-78
2024/04/12 13:17:12;;;;;;;1999.90;999.90;;;25.70;99.90;;;;;;5310347;26;20045;-78
2024/04/12 13:19:42;;;;;;;1999.90;999.90;;;25.80;99.90;;;;;;5310312;27;20035;-78
2024/04/12 13:22:14;;;;;;;1999.90;999.90;;;25.90;99.90;;;;;;5314597;26;20033;-78
2024/04/12 13:24:43;;;;;;;1999.90;999.90;;;25.50;99.90;;;;;;5314926;26;20030;-77
2024/04/12 13:27:14;;;;;;;1999.90;999.90;;;25.30;99.90;;;;;;5313647;26;20029;-78
2024/04/12 13:29:41;;;;;;;1999.90;999.90;;;25.60;99.90;;;;;;5311490;27;20476;-78
2024/04/12 13:32:10;;;;;;;1999.90;999.90;;;25.40;99.90;;;;;;5314124;26;20373;-78
2024/04/12 13:34:37;;;;;;;1999.90;999.90;;;25.50;99.90;;;;;;5314401;26;20482;-78
2024/04/12 13:37:06;;;;;;;1999.90;999.90;;;25.60;99.90;;;;;;5331638;26;20481;-78
2024/04/12 13:39:34;;;;;;;1999.90;999.90;;;25.50;99.90;;;;;;5345254;26;20033;-78
2024/04/12 13:42:03;;;;;;;1999.90;999.90;;;25.60;99.90;;;;;;5321631;26;20033;-78
2024/04/12 13:52:48;;;;;;;1999.90;999.90;;;25.60;99.90;;;;;;5336478;26;20374;-78
2024/04/12 13:55:15;;;;;;;1999.90;999.90;;;25.80;99.90;;;;;;5311229;26;20030;-78
2024/04/12 13:57:44;;;;;;;1999.90;999.90;;;25.90;99.90;;;;;;5313701;27;20022;-78
2024/04/12 14:00:13;;;;;;;1999.90;999.90;;;25.90;99.90;;;;;;5282221;26;20474;-78
2024/04/12 14:02:40;;;;;;;1999.90;999.90;;;25.90;99.90;;;;;;5311963;26;20037;-81